Latest Weather Observations for Norseman Airport

IDW60801

Issued at 5:02 pm WST Monday 27 April 2015 (issued every 30 minutes, with the page automatically refreshed every 10 minutes)

About weather observations | Map of weather stations | Latest weather observations for WA | Other Formats
Station Details ID: 012009 Name: NORSEMAN AERO Lat: -32.21 Lon: 121.75 Height: 262.5 m
Data from the previous 72 hours. | See also: Recent months at Norseman Airport
Date/Time
WST
Temp
°C
App
Temp
°C
Dew
Point
Rel
Hum
%
Delta-T
°C
Wind Press
QNH
hPa
Press
MSL
hPa
Rain
since 9 am
mm
Dir
 
Spd
km/h
Gust
km/h
Spd
kts
Gust
kts
27/05:00pm 18.7 14.3 4.8 40 6.7 NE 17 22 9 12 1027.6 1026.9 0.0
27/04:30pm 18.9 14.2 5.0 40 6.8 ENE 19 26 10 14 1027.6 1026.9 0.0
27/04:00pm 19.4 15.5 5.5 40 6.9 NE 15 22 8 12 1027.6 1026.9 0.0
27/03:30pm 19.0 14.7 5.1 40 6.8 NE 17 22 9 12 1027.7 1027.0 0.0
27/03:00pm 19.3 15.9 6.1 42 6.6 ENE 13 19 7 10 1027.7 1027.0 0.0
27/02:30pm 19.4 15.7 6.2 42 6.7 ENE 15 24 8 13 1027.6 1026.9 0.0
27/02:00pm 19.8 16.0 5.8 40 7.0 NE 15 24 8 13 1027.4 1026.7 0.0
27/01:30pm 19.4 14.8 5.5 40 6.9 NNE 19 28 10 15 1027.6 1026.9 0.0
27/01:00pm 18.8 14.3 6.0 43 6.4 ENE 19 26 10 14 1027.9 1027.2 0.0
27/12:30pm 18.7 14.6 6.2 44 6.3 ENE 17 24 9 13 1028.5 1027.9 0.0
27/12:00pm 19.1 14.9 5.6 41 6.7 NE 17 30 9 16 1029.0 1028.4 0.0
27/11:30am 18.1 14.3 6.0 45 6.0 E 15 24 8 13 1029.5 1028.9 0.0
27/11:00am 18.3 13.3 6.5 46 5.9 NE 22 30 12 16 1029.8 1029.2 0.0
27/10:30am 17.2 13.2 8.1 55 4.7 ENE 19 28 10 15 1030.2 1029.6 0.0
27/10:00am 16.5 13.6 9.7 64 3.6 NE 15 22 8 12 1030.3 1029.7 0.0
27/09:30am 15.6 13.2 10.2 70 2.9 ENE 13 19 7 10 1030.4 1029.8 0.0
27/09:00am 13.9 11.8 9.7 76 2.2 NE 11 15 6 8 1030.4 1029.8 0.0
27/08:30am 13.0 10.4 9.4 79 1.9 NE 13 19 7 10 1030.4 1029.8 0.0
27/08:00am 12.1 10.3 9.5 84 1.3 NE 9 13 5 7 1030.2 1029.6 0.0
27/07:30am 10.9 10.4 9.3 90 0.8 S 2 11 1 6 1029.9 1029.3 0.0
27/07:00am 9.4 9.0 8.2 92 0.6 CALM 0 0 0 0 1029.7 1029.1 0.0
27/06:30am 8.8 8.2 7.4 91 0.7 CALM 0 0 0 0 1029.6 1029.0 0.0
27/06:00am 8.4 6.6 7.2 92 0.6 WNW 6 7 3 4 1029.6 1029.0 0.0
27/05:30am 8.1 5.6 6.6 90 0.7 ENE 9 11 5 6 1029.4 1028.8 0.0
27/05:00am 9.0 7.6 7.1 88 0.9 NW 4 6 2 3 1029.4 1028.8 0.0
27/04:30am 9.7 7.8 7.6 87 1.0 NW 7 9 4 5 1029.2 1028.6 0.0
27/04:00am 10.1 8.9 8.0 87 1.0 ENE 4 9 2 5 1029.1 1028.5 0.0
27/03:30am 10.5 7.6 8.3 86 1.1 E 13 19 7 10 1028.6 1028.0 0.0
27/03:00am 10.7 7.5 8.5 86 1.1 E 15 20 8 11 1028.5 1027.9 0.0
27/02:30am 10.8 7.6 8.4 85 1.2 E 15 19 8 10 1028.4 1027.8 0.0
27/02:00am 11.0 7.7 8.0 82 1.5 E 15 20 8 11 1028.5 1027.9 0.0
27/01:30am 11.2 8.2 7.5 78 1.8 ESE 13 19 7 10 1028.5 1027.9 0.0
27/01:00am 11.4 8.2 6.9 74 2.2 ESE 13 17 7 9 1028.5 1027.9 0.0
27/12:30am 11.8 8.6 6.7 71 2.5 E 13 19 7 10 1028.6 1028.0 0.0
27/12:00am 12.0 8.7 6.3 68 2.7 E 13 17 7 9 1028.6 1028.0 0.0
 
Date/Time
WST
Temp
°C
App
Temp
°C
Dew
Point
Rel
Hum
%
Delta-T
°C
Wind Press
QNH
hPa
Press
MSL
hPa
Rain
since 9 am
mm
Dir
 
Spd
km/h
Gust
km/h
Spd
kts
Gust
kts
26/11:30pm 12.1 8.6 5.5 64 3.1 ESE 13 17 7 9 1028.6 1028.0 0.0
26/11:00pm 12.7 9.2 5.4 61 3.4 E 13 17 7 9 1028.4 1027.8 0.0
26/10:30pm 12.5 9.3 5.2 61 3.4 E 11 13 6 7 1028.4 1027.8 0.0
26/10:00pm 13.2 10.1 5.4 59 3.7 ESE 11 15 6 8 1028.4 1027.8 0.0
26/09:30pm 13.8 10.7 5.4 57 4.0 E 11 15 6 8 1028.3 1027.7 0.0
26/09:00pm 14.3 11.2 5.7 56 4.1 E 11 15 6 8 1028.3 1027.7 0.0
26/08:30pm 15.3 12.6 5.8 53 4.6 ENE 9 11 5 6 1028.1 1027.4 0.0
26/08:00pm 15.8 13.6 6.0 52 4.8 E 7 9 4 5 1027.9 1027.2 0.0
26/07:30pm 15.9 13.2 5.8 51 4.9 E 9 9 5 5 1027.7 1027.0 0.0
26/07:00pm 16.6 14.3 5.9 49 5.2 E 7 9 4 5 1027.7 1027.0 0.0
26/06:30pm 17.0 14.7 5.6 47 5.6 E 7 9 4 5 1027.6 1026.9 0.0
26/06:00pm 17.3 15.0 5.6 46 5.7 E 7 9 4 5 1027.3 1026.6 0.0
26/05:30pm 17.7 14.9 5.3 44 6.1 E 9 11 5 6 1027.2 1026.5 0.0
26/05:00pm 18.2 14.6 5.1 42 6.4 E 13 17 7 9 1026.9 1026.3 0.0
26/04:30pm 18.5 15.3 5.0 41 6.6 ESE 11 19 6 10 1026.8 1026.2 0.0
26/04:00pm 19.2 15.5 4.2 37 7.2 ESE 13 17 7 9 1026.8 1026.2 0.0
26/03:30pm 19.1 15.8 4.8 39 7.0 E 11 19 6 10 1026.8 1026.2 0.0
26/03:00pm 20.1 16.7 5.7 39 7.2 ENE 13 19 7 10 1026.7 1026.1 0.0
26/02:30pm 18.9 15.2 4.7 39 6.9 E 13 17 7 9 1026.7 1026.1 0.0
26/02:00pm 19.0 15.5 5.5 41 6.7 SE 13 19 7 10 1026.8 1026.2 0.0
26/01:30pm 19.7 15.7 5.0 38 7.3 NE 15 24 8 13 1026.8 1026.2 0.0
26/01:00pm 18.6 15.5 5.5 42 6.4 E 11 20 6 11 1027.0 1026.4 0.0
26/12:30pm 18.8 15.8 6.0 43 6.4 ESE 11 22 6 12 1027.5 1026.8 0.0
26/12:00pm 19.8 16.5 6.2 41 6.8 NNE 13 20 7 11 1027.9 1027.2 0.0
26/11:30am 17.8 16.2 7.8 52 5.1 NW 6 11 3 6 1028.4 1027.8 0.0
26/11:00am 17.1 15.3 8.0 55 4.6 NNW 7 11 4 6 1028.9 1028.3 0.0
26/10:30am 16.4 14.5 8.9 61 3.9 N 9 13 5 7 1029.2 1028.6 0.0
26/10:00am 15.7 12.7 9.4 66 3.3 NE 15 19 8 10 1029.6 1029.0 0.0
26/09:30am 14.8 13.1 9.8 72 2.6 NNE 9 15 5 8 1029.7 1029.1 0.0
26/09:00am 14.0 12.2 9.6 75 2.3 E 9 15 5 8 1029.7 1029.1 0.0
26/08:30am 12.5 10.6 10.4 87 1.1 NE 11 15 6 8 1029.7 1029.1 0.0
26/08:00am 9.3 8.0 9.2 99 0.0 SE 6 9 3 5 1029.7 1029.1 0.0
26/07:30am 5.5 4.5 5.4 99 0.0 CALM 0 6 0 3 1029.5 1028.9 0.0
26/07:00am 6.2 4.0 6.1 99 0.0 ESE 7 11 4 6 1029.2 1028.6 0.0
26/06:30am 4.8 2.5 4.7 99 0.0 ENE 6 7 3 4 1029.0 1028.4 0.0
26/06:00am 5.3 4.2 5.0 98 0.1 CALM 0 0 0 0 1028.6 1028.0 0.0
26/05:30am 5.1 3.9 4.4 95 0.3 CALM 0 0 0 0 1028.5 1027.9 0.0
26/05:00am 5.7 4.5 4.8 94 0.4 CALM 0 0 0 0 1028.3 1027.7 0.0
26/04:30am 5.8 4.3 4.8 93 0.4 ESE 2 6 1 3 1028.1 1027.4 0.0
26/04:00am 6.0 4.1 5.0 93 0.4 SE 4 7 2 4 1027.9 1027.2 0.0
26/03:30am 7.3 5.1 6.2 93 0.5 E 7 9 4 5 1027.8 1027.1 0.0
26/03:00am 8.9 7.0 7.5 91 0.7 ENE 7 9 4 5 1027.8 1027.1 0.0
26/02:30am 8.8 7.1 7.6 92 0.6 N 6 11 3 6 1027.8 1027.1 0.0
26/02:00am 8.0 6.1 6.6 91 0.6 SE 6 9 3 5 1027.9 1027.2 0.0
26/01:30am 9.1 7.1 7.1 87 1.0 E 7 9 4 5 1028.0 1027.3 0.0
26/01:00am 10.0 8.3 7.4 84 1.2 E 6 9 3 5 1028.2 1027.6 0.0
26/12:30am 10.2 9.5 7.1 81 1.5 CALM 0 6 0 3 1027.9 1027.2 0.0
26/12:00am 10.7 9.2 7.0 78 1.8 ESE 4 9 2 5 1027.8 1027.1 0.0
 
Date/Time
WST
Temp
°C
App
Temp
°C
Dew
Point
Rel
Hum
%
Delta-T
°C
Wind Press
QNH
hPa
Press
MSL
hPa
Rain
since 9 am
mm
Dir
 
Spd
km/h
Gust
km/h
Spd
kts
Gust
kts
25/11:30pm 11.2 10.1 6.9 75 2.1 SSW 2 7 1 4 1027.8 1027.1 0.0
25/11:00pm 11.7 8.5 7.0 73 2.3 ESE 13 19 7 10 1027.6 1026.9 0.0
25/10:30pm 12.0 8.4 6.7 70 2.6 ESE 15 22 8 12 1027.6 1026.9 0.0
25/10:00pm 12.5 8.8 6.3 66 3.0 ESE 15 28 8 15 1027.7 1027.0 0.0
25/09:30pm 13.0 9.2 5.9 62 3.4 SE 15 22 8 12 1027.8 1027.1 0.0
25/09:00pm 13.6 8.8 5.7 59 3.8 SE 20 32 11 17 1027.5 1026.8 0.0
25/08:30pm 14.0 9.7 5.4 56 4.1 SE 17 30 9 16 1027.4 1026.7 0.0
25/08:00pm 14.2 10.3 5.3 55 4.2 SE 15 20 8 11 1027.2 1026.5 0.0
25/07:30pm 14.5 10.7 5.6 55 4.3 SE 15 20 8 11 1026.9 1026.3 0.0
25/07:00pm 14.8 10.9 5.3 53 4.5 SE 15 20 8 11 1026.8 1026.2 0.0
25/06:30pm 14.5 11.2 4.8 52 4.6 SE 11 13 6 7 1026.5 1025.9 0.0
25/06:00pm 15.2 12.0 4.9 50 4.9 SE 11 13 6 7 1026.3 1025.7 0.0
25/05:30pm 15.7 13.2 5.0 49 5.1 SSE 7 11 4 6 1026.0 1025.4 0.0
25/05:00pm 17.4 13.7 4.7 43 6.1 SE 13 20 7 11 1025.8 1025.2 0.0
25/04:30pm 18.2 14.9 4.7 41 6.5 ESE 11 15 6 8 1025.6 1025.0 0.0
25/04:00pm 18.9 14.4 4.3 38 7.0 SE 17 22 9 12 1025.6 1025.0 0.0
25/03:30pm 19.2 16.3 4.9 39 7.0 E 9 19 5 10 1025.6 1025.0 0.0
25/03:00pm 19.2 16.3 4.6 38 7.1 E 9 20 5 11 1025.5 1024.9 0.0
25/02:30pm 19.2 15.6 4.9 39 7.0 SE 13 28 7 15 1025.5 1024.9 0.0
25/02:00pm 18.5 14.6 5.4 42 6.4 S 15 24 8 13 1025.7 1025.1 0.0
25/01:30pm 19.6 16.2 6.0 41 6.8 NNE 13 24 7 13 1025.9 1025.3 0.0
25/01:00pm 16.8 14.0 5.1 46 5.6 ESE 9 13 5 7 1026.4 1025.8 0.0
25/12:30pm 16.3 13.2 5.6 49 5.2 SSE 11 17 6 9 1026.8 1026.2 0.0
25/12:00pm 16.4 13.1 6.2 51 5.0 SE 13 22 7 12 1027.3 1026.6 0.0
25/11:30am 15.5 12.2 6.5 55 4.4 S 13 20 7 11 1027.8 1027.1 0.0
25/11:00am 15.3 12.4 6.3 55 4.4 ESE 11 17 6 9 1028.2 1027.6 0.0
25/10:30am 14.6 11.0 6.9 60 3.8 ESE 15 20 8 11 1028.6 1028.0 0.0
25/10:00am 14.2 11.2 7.5 64 3.3 SE 13 19 7 10 1028.9 1028.3 0.0
25/09:30am 14.1 12.0 8.1 67 3.0 SE 9 17 5 9 1029.0 1028.4 0.0
25/09:00am 13.8 11.9 9.0 73 2.4 ENE 9 17 5 9 1029.1 1028.5 0.0
25/08:30am 10.2 8.5 8.3 88 0.9 W 7 9 4 5 1029.2 1028.6 0.0
25/08:00am 7.6 5.9 7.5 99 0.0 SW 6 7 3 4 1029.2 1028.6 0.0
25/07:30am 6.2 4.0 6.1 99 0.0 SW 7 7 4 4 1028.9 1028.3 0.0
25/07:00am 5.1 2.6 5.0 99 0.0 SSW 7 9 4 5 1028.4 1027.8 0.0
25/06:30am 4.1 1.5 4.0 99 0.0 SSW 7 9 4 5 1028.0 1027.3 0.0
25/06:00am 4.4 1.4 4.3 99 0.0 SW 9 11 5 6 1027.9 1027.2 0.0
25/05:30am 5.2 2.7 4.9 98 0.1 SW 7 9 4 5 1027.8 1027.1 0.0
25/05:00am 5.5 2.3 5.1 97 0.2 S 11 13 6 7 1027.8 1027.1 0.0
25/04:30am 4.8 3.0 3.6 92 0.5 SSE 2 7 1 4 1027.5 1026.8 0.0
25/04:00am 5.8 3.2 4.4 91 0.6 S 7 9 4 5 1027.6 1026.9 0.0
25/03:30am 7.4 5.3 5.9 90 0.7 SW 6 7 3 4 1027.5 1026.8 0.0
25/03:00am 8.1 6.1 6.4 89 0.8 S 6 7 3 4 1027.5 1026.8 0.0
25/02:30am 7.9 5.9 6.4 90 0.7 S 6 7 3 4 1027.6 1026.9 0.0
25/02:00am 7.1 5.3 5.6 90 0.7 SSE 4 6 2 3 1028.0 1027.3 0.0
25/01:30am 6.9 4.7 5.5 91 0.6 SE 6 6 3 3 1028.0 1027.3 0.0
25/01:00am 7.8 6.9 6.1 89 0.8 CALM 0 6 0 3 1027.9 1027.2 0.0
25/12:30am 8.4 6.7 5.9 84 1.2 SE 4 6 2 3 1027.8 1027.1 0.0
25/12:00am 10.4 8.6 7.1 80 1.6 SE 6 7 3 4 1028.1 1027.4 0.0
 
Date/Time
WST
Temp
°C
App
Temp
°C
Dew
Point
Rel
Hum
%
Delta-T
°C
Wind Press
QNH
hPa
Press
MSL
hPa
Rain
since 9 am
mm
Dir
 
Spd
km/h
Gust
km/h
Spd
kts
Gust
kts
24/11:30pm 11.4 9.7 7.5 77 1.9 E 6 9 3 5 1028.0 1027.3 0.0
24/11:00pm 11.5 9.1 7.2 75 2.1 ESE 9 13 5 7 1027.9 1027.2 0.0
24/10:30pm 11.4 8.5 6.7 73 2.3 SE 11 17 6 9 1028.2 1027.6 0.0
24/10:00pm 12.1 8.9 6.8 70 2.6 SE 13 15 7 8 1028.2 1027.6 0.0
24/09:30pm 12.7 9.2 7.0 68 2.8 SSE 15 20 8 11 1028.3 1027.7 0.0
24/09:00pm 13.2 9.2 6.8 65 3.1 SSE 17 28 9 15 1028.4 1027.8 0.0
24/08:30pm 13.4 9.1 7.0 65 3.1 SE 19 28 10 15 1028.2 1027.6 0.0
24/08:00pm 13.8 9.9 6.9 63 3.4 SSE 17 24 9 13 1028.3 1027.7 0.0
24/07:30pm 14.0 10.0 6.8 62 3.5 SSE 17 24 9 13 1028.0 1027.3 0.0
24/07:00pm 14.4 11.1 6.5 59 3.8 SSE 13 20 7 11 1027.8 1027.1 0.0
24/06:30pm 14.5 11.2 6.3 58 4.0 SSE 13 19 7 10 1027.6 1026.9 0.0
24/06:00pm 14.9 11.6 6.2 56 4.2 SSE 13 28 7 15 1027.4 1026.7 0.0
24/05:30pm 15.1 11.6 5.6 53 4.6 SSE 13 17 7 9 1027.0 1026.4 0.0

Other Formats:

Comma delimited format used in spreadsheet applications
http://www.bom.gov.au/fwo/IDW60801/IDW60801.95642.axf

JavaScript Object Notation format (JSON) in row-major order
http://www.bom.gov.au/fwo/IDW60801/IDW60801.95642.json